createdAt,value
2022-09-09T00:01:10.041Z,14.85
2022-09-09T00:03:46.370Z,14.84
2022-09-09T00:06:25.225Z,14.82
2022-09-09T00:09:03.539Z,14.81
2022-09-09T00:11:42.342Z,14.80
2022-09-09T00:14:20.709Z,14.79
2022-09-09T00:16:56.389Z,14.78
2022-09-09T00:19:33.046Z,14.77
2022-09-09T00:22:15.054Z,14.76
2022-09-09T00:24:47.191Z,14.75
2022-09-09T00:27:24.677Z,14.76
2022-09-09T00:29:58.125Z,14.74
2022-09-09T00:32:32.053Z,14.75
2022-09-09T00:35:06.309Z,14.74
2022-09-09T00:37:36.435Z,14.72
2022-09-09T00:40:20.453Z,14.71
2022-09-09T00:42:54.916Z,14.71
2022-09-09T00:45:45.242Z,14.71
2022-09-09T00:48:17.196Z,14.71
2022-09-09T00:50:56.371Z,14.72
2022-09-09T00:53:40.478Z,14.72
2022-09-09T00:56:16.061Z,14.72
2022-09-09T00:58:51.401Z,14.73
2022-09-09T01:01:20.581Z,14.74
2022-09-09T01:03:54.866Z,14.73
2022-09-09T01:06:32.502Z,14.74
2022-09-09T01:09:18.641Z,14.74
2022-09-09T01:12:03.988Z,14.74
2022-09-09T01:14:45.275Z,14.74
2022-09-09T01:17:19.609Z,14.75
2022-09-09T01:20:08.951Z,14.73
2022-09-09T01:23:10.995Z,14.74
2022-09-09T01:26:15.478Z,14.73
2022-09-09T01:28:47.560Z,14.73
2022-09-09T01:31:22.714Z,14.72
2022-09-09T01:33:52.186Z,14.72
2022-09-09T01:36:28.374Z,14.72
2022-09-09T01:38:58.172Z,14.70
2022-09-09T01:41:29.190Z,14.70
2022-09-09T01:44:05.357Z,14.70
2022-09-09T01:46:36.592Z,14.71
2022-09-09T01:49:09.304Z,14.70
2022-09-09T01:51:40.332Z,14.71
2022-09-09T01:54:13.743Z,14.71
2022-09-09T01:56:58.198Z,14.70
2022-09-09T01:59:42.688Z,14.70
2022-09-09T02:02:15.652Z,14.69
2022-09-09T02:04:54.132Z,14.69
2022-09-09T02:07:39.908Z,14.69
2022-09-09T02:10:18.601Z,14.69
2022-09-09T02:13:05.508Z,14.69
2022-09-09T02:15:41.834Z,14.69
2022-09-09T02:18:14.359Z,14.69
2022-09-09T02:20:45.805Z,14.69
2022-09-09T02:23:17.178Z,14.69
2022-09-09T02:25:52.705Z,14.68
2022-09-09T02:28:30.707Z,14.68
2022-09-09T02:31:00.258Z,14.68
2022-09-09T02:33:40.722Z,14.68
2022-09-09T02:36:13.307Z,14.68
2022-09-09T02:38:51.442Z,14.68
2022-09-09T02:41:26.773Z,14.68
2022-09-09T02:43:59.098Z,14.68
2022-09-09T02:46:41.553Z,14.67
2022-09-09T02:49:17.882Z,14.67
2022-09-09T02:51:56.380Z,14.66
2022-09-09T02:54:31.954Z,14.66
2022-09-09T02:57:11.374Z,14.65
2022-09-09T02:59:42.895Z,14.64
2022-09-09T03:02:12.481Z,14.64
2022-09-09T03:04:45.517Z,14.63
2022-09-09T03:07:16.832Z,14.62
2022-09-09T03:09:47.056Z,14.63
2022-09-09T03:12:16.228Z,14.61
2022-09-09T03:14:47.758Z,14.61
2022-09-09T03:17:19.897Z,14.59
2022-09-09T03:19:56.239Z,14.59
2022-09-09T03:22:26.472Z,14.58
2022-09-09T03:24:57.678Z,14.58
2022-09-09T03:27:27.241Z,14.55
2022-09-09T03:29:58.621Z,14.54
2022-09-09T03:32:29.412Z,14.51
2022-09-09T03:34:59.940Z,14.48
2022-09-09T03:37:28.977Z,14.44
2022-09-09T03:39:58.084Z,14.40
2022-09-09T03:42:27.206Z,14.37
2022-09-09T03:45:00.409Z,14.33
2022-09-09T03:47:30.174Z,14.30
2022-09-09T03:50:09.446Z,14.27
2022-09-09T03:52:41.713Z,14.23
2022-09-09T03:55:16.154Z,14.20
2022-09-09T03:57:45.261Z,14.17
2022-09-09T04:00:16.881Z,14.14
2022-09-09T04:02:46.828Z,14.11
2022-09-09T04:05:18.458Z,14.07
2022-09-09T04:07:49.769Z,14.05
2022-09-09T04:10:18.831Z,14.02
2022-09-09T04:12:49.625Z,13.99
2022-09-09T04:15:20.581Z,13.96
2022-09-09T04:17:49.580Z,13.94
2022-09-09T04:20:20.427Z,13.93
2022-09-09T04:22:49.618Z,13.89
2022-09-09T04:25:18.747Z,13.87
2022-09-09T04:27:48.569Z,13.85
2022-09-09T04:30:19.364Z,13.83
2022-09-09T04:32:48.428Z,13.82
2022-09-09T04:35:18.183Z,13.81
2022-09-09T04:37:48.950Z,13.78
2022-09-09T04:40:18.080Z,13.77
2022-09-09T04:42:49.009Z,13.75
2022-09-09T04:45:19.526Z,13.74
2022-09-09T04:47:50.115Z,13.73
2022-09-09T04:50:19.717Z,13.71
2022-09-09T04:52:50.129Z,13.71
2022-09-09T04:55:19.111Z,13.70
2022-09-09T04:57:49.293Z,13.70
2022-09-09T05:00:20.331Z,13.69
2022-09-09T05:02:52.113Z,13.69
2022-09-09T05:05:21.383Z,13.67
2022-09-09T05:07:51.395Z,13.67
2022-09-09T05:10:20.251Z,13.66
2022-09-09T05:12:55.605Z,13.66
2022-09-09T05:15:28.813Z,13.64
2022-09-09T05:18:01.268Z,13.62
2022-09-09T05:20:32.954Z,13.60
2022-09-09T05:23:02.306Z,13.58
2022-09-09T05:25:33.334Z,13.57
2022-09-09T05:28:02.279Z,13.55
2022-09-09T05:30:32.769Z,13.52
2022-09-09T05:33:04.083Z,13.51
2022-09-09T05:35:33.214Z,13.48
2022-09-09T05:38:02.910Z,13.47
2022-09-09T05:40:32.252Z,13.44
2022-09-09T05:43:03.975Z,13.43
2022-09-09T05:45:34.366Z,13.41
2022-09-09T05:48:03.850Z,13.40
2022-09-09T05:50:32.767Z,13.37
2022-09-09T05:53:01.630Z,13.36
2022-09-09T05:55:33.003Z,13.36
2022-09-09T05:58:02.245Z,13.35
2022-09-09T06:00:32.644Z,13.35
2022-09-09T06:03:04.610Z,13.33
2022-09-09T06:05:33.778Z,13.32
2022-09-09T06:08:02.811Z,13.30
2022-09-09T06:10:31.803Z,13.27
2022-09-09T06:13:00.858Z,13.26
2022-09-09T06:15:31.577Z,13.24
2022-09-09T06:18:01.966Z,13.23
2022-09-09T06:20:33.138Z,13.21
2022-09-09T06:23:02.015Z,13.21
2022-09-09T06:25:31.245Z,13.18
2022-09-09T06:28:00.345Z,13.17
2022-09-09T06:30:29.207Z,13.15
2022-09-09T06:32:59.090Z,13.13
2022-09-09T06:35:29.799Z,13.12
2022-09-09T06:37:59.659Z,13.10
2022-09-09T06:40:29.106Z,13.09
2022-09-09T06:43:01.446Z,13.07
2022-09-09T06:45:42.052Z,13.07
2022-09-09T06:48:11.273Z,13.06
2022-09-09T06:50:41.482Z,13.05
2022-09-09T06:53:10.769Z,13.04
2022-09-09T06:55:41.347Z,13.03
2022-09-09T06:58:11.251Z,13.02
2022-09-09T07:00:40.582Z,13.02
2022-09-09T07:03:09.899Z,13.01
2022-09-09T07:05:40.598Z,12.99
2022-09-09T07:08:09.739Z,12.98
2022-09-09T07:10:38.610Z,12.97
2022-09-09T07:13:08.611Z,12.96
2022-09-09T07:15:37.686Z,12.95
2022-09-09T07:18:06.719Z,12.95
2022-09-09T07:20:35.908Z,12.94
2022-09-09T07:23:06.636Z,12.95
2022-09-09T07:25:35.565Z,12.94
2022-09-09T07:28:05.238Z,12.93
2022-09-09T07:30:34.320Z,12.92
2022-09-09T07:33:04.464Z,12.92
2022-09-09T07:35:34.097Z,12.91
2022-09-09T07:38:05.815Z,12.90
2022-09-09T07:40:37.068Z,12.90
2022-09-09T07:43:06.261Z,12.90
2022-09-09T07:45:37.542Z,12.90
2022-09-09T07:48:07.625Z,12.89
2022-09-09T07:50:36.830Z,12.88
2022-09-09T07:53:07.494Z,12.89
2022-09-09T07:55:36.995Z,12.88
2022-09-09T07:58:05.877Z,12.87
2022-09-09T08:00:35.311Z,12.87
2022-09-09T08:03:04.996Z,12.86
2022-09-09T08:05:34.426Z,12.86
2022-09-09T08:08:04.751Z,12.86
2022-09-09T08:10:35.675Z,12.85
2022-09-09T08:13:19.715Z,12.85
2022-09-09T08:15:52.269Z,12.86
2022-09-09T08:18:23.142Z,12.86
2022-09-09T08:20:52.795Z,12.87
2022-09-09T08:23:22.315Z,12.88
2022-09-09T08:25:52.544Z,12.89
2022-09-09T08:28:22.173Z,12.89
2022-09-09T08:30:52.814Z,12.90
2022-09-09T08:33:21.957Z,12.91
2022-09-09T08:35:53.931Z,12.91
2022-09-09T08:38:23.583Z,12.93
2022-09-09T08:41:02.168Z,12.93
2022-09-09T08:43:33.270Z,12.95
2022-09-09T08:46:10.703Z,12.99
2022-09-09T08:48:59.148Z,13.01
2022-09-09T08:51:32.552Z,13.04
2022-09-09T08:54:04.953Z,13.08
2022-09-09T08:56:37.940Z,13.11
2022-09-09T08:59:07.291Z,13.13
2022-09-09T09:01:48.583Z,13.15
2022-09-09T09:05:00.414Z,13.17
2022-09-09T09:07:43.010Z,13.19
2022-09-09T09:10:40.411Z,13.21
2022-09-09T09:13:16.997Z,13.24
2022-09-09T09:15:49.058Z,13.26
2022-09-09T09:18:20.119Z,13.29
2022-09-09T09:20:59.217Z,13.32
2022-09-09T09:23:32.053Z,13.34
2022-09-09T09:26:03.237Z,13.37
2022-09-09T09:28:37.305Z,13.38
2022-09-09T09:31:14.840Z,13.40
2022-09-09T09:33:51.090Z,13.42
2022-09-09T09:36:25.735Z,13.42
2022-09-09T09:41:48.300Z,13.45
2022-09-09T09:44:30.830Z,13.46
2022-09-09T09:47:10.757Z,13.46
2022-09-09T09:49:40.706Z,13.47
2022-09-09T09:52:16.377Z,13.50
2022-09-09T09:54:45.823Z,13.50
2022-09-09T09:57:17.985Z,13.49
2022-09-09T09:59:50.970Z,13.49
2022-09-09T10:02:28.117Z,13.49
2022-09-09T10:05:14.767Z,13.51
2022-09-09T10:07:47.164Z,13.53
2022-09-09T10:10:23.034Z,13.55
2022-09-09T10:13:01.959Z,13.57
2022-09-09T10:15:44.062Z,13.61
2022-09-09T10:18:38.661Z,13.65
2022-09-09T10:21:23.201Z,13.68
2022-09-09T10:24:11.801Z,13.70
2022-09-09T10:26:48.696Z,13.72
2022-09-09T10:29:59.416Z,13.75
2022-09-09T10:32:41.409Z,13.76
2022-09-09T10:35:21.734Z,13.79
2022-09-09T10:38:15.918Z,13.82
2022-09-09T10:41:01.663Z,13.83
2022-09-09T10:44:01.821Z,13.86
2022-09-09T10:46:38.293Z,13.87
2022-09-09T10:49:24.388Z,13.89
2022-09-09T10:52:02.363Z,13.91
2022-09-09T10:54:50.073Z,13.92
2022-09-09T10:57:29.384Z,13.94
2022-09-09T11:00:01.095Z,13.96
2022-09-09T11:02:31.962Z,13.97
2022-09-09T11:05:09.048Z,14.01
2022-09-09T11:07:44.668Z,14.03
2022-09-09T11:10:26.176Z,14.06
2022-09-09T11:13:00.169Z,14.09
2022-09-09T11:15:40.574Z,14.12
2022-09-09T11:18:15.437Z,14.15
2022-09-09T11:20:48.579Z,14.16
2022-09-09T11:23:24.436Z,14.19
2022-09-09T11:25:58.112Z,14.21
2022-09-09T11:28:42.141Z,14.24
2022-09-09T11:31:29.790Z,14.26
2022-09-09T11:34:12.465Z,14.30
2022-09-09T11:37:07.663Z,14.32
2022-09-09T11:39:50.019Z,14.34
2022-09-09T11:42:22.035Z,14.37
2022-09-09T11:44:51.118Z,14.37
2022-09-09T11:47:30.280Z,14.39
2022-09-09T11:50:11.185Z,14.39
2022-09-09T11:52:46.872Z,14.39
2022-09-09T11:55:30.568Z,14.41
2022-09-09T11:58:01.806Z,14.41
2022-09-09T12:00:36.286Z,14.42
2022-09-09T12:03:06.294Z,14.42
2022-09-09T12:05:44.656Z,14.43
2022-09-09T12:08:26.284Z,14.42
2022-09-09T12:10:57.870Z,14.43
2022-09-09T12:13:29.363Z,14.43
2022-09-09T12:16:00.156Z,14.43
2022-09-09T12:18:35.971Z,14.43
2022-09-09T12:21:14.871Z,14.41
2022-09-09T12:23:51.789Z,14.42
2022-09-09T12:26:33.618Z,14.41
2022-09-09T12:29:14.101Z,14.39
2022-09-09T12:31:50.784Z,14.39
2022-09-09T12:34:32.275Z,14.38
2022-09-09T12:37:07.030Z,14.37
2022-09-09T12:39:43.601Z,14.36
2022-09-09T12:42:25.811Z,14.36
2022-09-09T12:44:56.688Z,14.35
2022-09-09T12:47:39.201Z,14.35
2022-09-09T12:50:19.808Z,14.33
2022-09-09T12:52:50.311Z,14.32
2022-09-09T12:55:26.147Z,14.32
2022-09-09T12:57:55.465Z,14.33
2022-09-09T13:00:25.397Z,14.31
2022-09-09T13:02:56.274Z,14.32
2022-09-09T13:05:27.679Z,14.33
2022-09-09T13:08:04.457Z,14.33
2022-09-09T13:10:52.416Z,14.33
2022-09-09T13:13:26.928Z,14.34
2022-09-09T13:15:58.264Z,14.34
2022-09-09T13:18:29.650Z,14.33
2022-09-09T13:21:00.015Z,14.33
2022-09-09T13:23:32.111Z,14.34
2022-09-09T13:26:05.553Z,14.33
2022-09-09T13:28:36.103Z,14.32
2022-09-09T13:31:08.079Z,14.33
2022-09-09T13:33:39.105Z,14.32
2022-09-09T13:36:10.524Z,14.31
2022-09-09T13:38:42.885Z,14.31
2022-09-09T13:41:22.433Z,14.30
2022-09-09T13:43:51.815Z,14.30
2022-09-09T13:46:28.620Z,14.29
2022-09-09T13:48:59.083Z,14.27
2022-09-09T13:51:38.016Z,14.28
2022-09-09T13:54:08.306Z,14.26
2022-09-09T13:56:40.295Z,14.27
2022-09-09T13:59:14.810Z,14.27
2022-09-09T14:01:44.319Z,14.28
2022-09-09T14:04:13.233Z,14.28
2022-09-09T14:06:42.765Z,14.29
2022-09-09T14:09:15.696Z,14.31
2022-09-09T14:11:46.257Z,14.32
2022-09-09T14:14:15.749Z,14.34
2022-09-09T14:16:44.613Z,14.36
2022-09-09T14:19:13.554Z,14.37
2022-09-09T14:21:42.617Z,14.38
2022-09-09T14:24:11.528Z,14.39
2022-09-09T14:26:40.349Z,14.40
2022-09-09T14:29:10.829Z,14.40
2022-09-09T14:31:39.633Z,14.41
2022-09-09T14:34:08.812Z,14.42
2022-09-09T14:36:37.764Z,14.41
2022-09-09T14:39:06.758Z,14.41
2022-09-09T14:41:35.861Z,14.40
2022-09-09T14:44:05.167Z,14.40
2022-09-09T14:46:35.410Z,14.40
2022-09-09T14:49:04.751Z,14.40
2022-09-09T14:51:33.975Z,14.39
2022-09-09T14:54:03.186Z,14.37
2022-09-09T14:56:35.465Z,14.36
2022-09-09T14:59:04.559Z,14.35
2022-09-09T15:01:35.335Z,14.34
2022-09-09T15:04:06.601Z,14.34
2022-09-09T15:06:39.487Z,14.33
2022-09-09T15:09:08.667Z,14.33
2022-09-09T15:11:39.155Z,14.31
2022-09-09T15:14:09.729Z,14.31
2022-09-09T15:16:41.800Z,14.31
2022-09-09T15:19:11.297Z,14.32
2022-09-09T15:21:40.847Z,14.32
2022-09-09T15:24:09.674Z,14.31
2022-09-09T15:26:39.695Z,14.32
2022-09-09T15:29:09.611Z,14.30
2022-09-09T15:31:39.752Z,14.30
2022-09-09T15:34:09.829Z,14.30
2022-09-09T15:36:40.559Z,14.30
2022-09-09T15:39:13.538Z,14.30
2022-09-09T15:41:43.354Z,14.29
2022-09-09T15:44:13.482Z,14.30
2022-09-09T15:46:45.486Z,14.30
2022-09-09T15:49:16.656Z,14.30
2022-09-09T15:51:47.515Z,14.30
2022-09-09T15:54:19.095Z,14.30
2022-09-09T15:56:49.821Z,14.31
2022-09-09T15:59:19.359Z,14.30
2022-09-09T16:01:52.197Z,14.31
2022-09-09T16:04:24.396Z,14.30
2022-09-09T16:06:54.200Z,14.31
2022-09-09T16:09:23.598Z,14.31
2022-09-09T16:11:54.348Z,14.30
2022-09-09T16:14:23.967Z,14.30
2022-09-09T16:16:54.701Z,14.29
2022-09-09T16:19:23.617Z,14.29
2022-09-09T16:21:52.959Z,14.30
2022-09-09T16:24:23.298Z,14.29
2022-09-09T16:26:55.547Z,14.29
2022-09-09T16:29:28.324Z,14.29
2022-09-09T16:32:03.953Z,14.28
2022-09-09T16:34:34.517Z,14.29
2022-09-09T16:37:04.265Z,14.28
2022-09-09T16:39:33.500Z,14.26
2022-09-09T16:42:05.991Z,14.28
2022-09-09T16:44:35.026Z,14.27
2022-09-09T16:47:05.683Z,14.28
2022-09-09T16:49:34.760Z,14.26
2022-09-09T16:52:03.948Z,14.27
2022-09-09T16:54:32.885Z,14.26
2022-09-09T16:57:02.140Z,14.26
2022-09-09T16:59:32.753Z,14.25
2022-09-09T17:02:05.975Z,14.25
2022-09-09T17:04:36.520Z,14.25
2022-09-09T17:07:05.822Z,14.25
2022-09-09T17:09:34.887Z,14.25
2022-09-09T17:12:04.210Z,14.25
2022-09-09T17:14:33.319Z,14.25
2022-09-09T17:17:24.732Z,14.25
2022-09-09T17:19:55.869Z,14.24
2022-09-09T17:22:27.587Z,14.24
2022-09-09T17:24:56.689Z,14.24
2022-09-09T17:27:25.540Z,14.23
2022-09-09T17:29:54.410Z,14.23
2022-09-09T17:32:23.457Z,14.24
2022-09-09T17:34:53.531Z,14.24
2022-09-09T17:37:23.885Z,14.23
2022-09-09T17:39:53.033Z,14.22
2022-09-09T17:42:22.479Z,14.22
2022-09-09T17:44:51.397Z,14.22
2022-09-09T17:47:21.166Z,14.22
2022-09-09T17:49:49.847Z,14.22
2022-09-09T17:52:18.813Z,14.20
2022-09-09T17:54:49.496Z,14.19
2022-09-09T17:57:20.199Z,14.20
2022-09-09T17:59:49.396Z,14.19
2022-09-09T18:02:18.386Z,14.19
2022-09-09T18:04:48.229Z,14.19
2022-09-09T18:07:17.364Z,14.19
2022-09-09T18:09:46.923Z,14.19
2022-09-09T18:12:18.131Z,14.20
2022-09-09T18:14:48.529Z,14.20
2022-09-09T18:17:18.082Z,14.21
2022-09-09T18:19:47.076Z,14.21
2022-09-09T18:22:16.129Z,14.21
2022-09-09T18:24:48.210Z,14.21
2022-09-09T18:27:18.941Z,14.21
2022-09-09T18:29:48.235Z,14.22
2022-09-09T18:32:21.304Z,14.22
2022-09-09T18:34:55.383Z,14.22
2022-09-09T18:37:24.856Z,14.22
2022-09-09T18:39:54.719Z,14.23
2022-09-09T18:42:26.713Z,14.24
2022-09-09T18:44:55.874Z,14.24
2022-09-09T18:47:26.207Z,14.24
2022-09-09T18:49:55.619Z,14.25
2022-09-09T18:52:25.970Z,14.25
2022-09-09T18:54:55.383Z,14.26
2022-09-09T18:57:36.246Z,14.28
2022-09-09T19:00:14.046Z,14.28
2022-09-09T19:02:43.927Z,14.28
2022-09-09T19:05:13.037Z,14.29
2022-09-09T19:07:41.961Z,14.29
2022-09-09T19:10:11.116Z,14.29
2022-09-09T19:12:41.492Z,14.29
2022-09-09T19:15:11.439Z,14.29
2022-09-09T19:17:40.407Z,14.29
2022-09-09T19:20:10.680Z,14.30
2022-09-09T19:22:39.527Z,14.29
2022-09-09T19:25:11.490Z,14.29
2022-09-09T19:27:43.189Z,14.29
2022-09-09T19:30:13.507Z,14.30
2022-09-09T19:33:10.356Z,14.30
2022-09-09T19:35:40.884Z,14.30
2022-09-09T19:38:10.158Z,14.30
2022-09-09T19:40:40.407Z,14.30
2022-09-09T19:43:10.815Z,14.30
2022-09-09T19:45:39.651Z,14.31
2022-09-09T19:48:09.336Z,14.31
2022-09-09T19:50:38.484Z,14.31
2022-09-09T19:53:07.624Z,14.32
2022-09-09T19:55:41.041Z,14.31
2022-09-09T19:58:11.476Z,14.32
2022-09-09T20:00:40.765Z,14.31
2022-09-09T20:03:19.172Z,14.31
2022-09-09T20:05:50.352Z,14.31
2022-09-09T20:08:20.016Z,14.32
2022-09-09T20:10:53.395Z,14.31
2022-09-09T20:13:24.043Z,14.31
2022-09-09T20:16:00.447Z,14.31
2022-09-09T20:18:32.580Z,14.31
2022-09-09T20:21:02.597Z,14.31
2022-09-09T20:23:33.881Z,14.32
2022-09-09T20:26:06.485Z,14.31
2022-09-09T20:28:39.079Z,14.31
2022-09-09T20:31:09.184Z,14.30
2022-09-09T20:33:39.125Z,14.31
2022-09-09T20:36:15.887Z,14.30
2022-09-09T20:38:46.649Z,14.30
2022-09-09T20:41:18.707Z,14.30
2022-09-09T20:43:50.027Z,14.31
2022-09-09T20:46:20.013Z,14.30
2022-09-09T20:48:51.309Z,14.29
2022-09-09T20:51:21.077Z,14.30
2022-09-09T20:53:56.887Z,14.30
2022-09-09T20:56:26.613Z,14.30
2022-09-09T20:58:57.015Z,14.30
2022-09-09T21:01:27.455Z,14.31
2022-09-09T21:03:56.753Z,14.29
2022-09-09T21:06:25.581Z,14.30
2022-09-09T21:08:54.558Z,14.29
2022-09-09T21:11:24.097Z,14.29
2022-09-09T21:13:53.258Z,14.29
2022-09-09T21:16:23.686Z,14.28
2022-09-09T21:18:52.796Z,14.26
2022-09-09T21:21:22.115Z,14.27
2022-09-09T21:23:51.450Z,14.27
2022-09-09T21:26:20.633Z,14.27
2022-09-09T21:28:49.479Z,14.27
2022-09-09T21:31:19.874Z,14.26
2022-09-09T21:33:50.406Z,14.25
2022-09-09T21:36:19.265Z,14.26
2022-09-09T21:38:48.125Z,14.25
2022-09-09T21:41:18.432Z,14.26
2022-09-09T21:43:52.334Z,14.25
2022-09-09T21:46:23.332Z,14.25
2022-09-09T21:48:56.072Z,14.25
2022-09-09T21:51:25.842Z,14.26
2022-09-09T21:53:56.209Z,14.23
2022-09-09T21:56:26.873Z,14.24
2022-09-09T21:58:57.831Z,14.23
2022-09-09T22:01:27.215Z,14.23
2022-09-09T22:03:57.826Z,14.22
2022-09-09T22:06:27.412Z,14.22
2022-09-09T22:08:57.278Z,14.22
2022-09-09T22:11:26.135Z,14.23
2022-09-09T22:13:55.990Z,14.22
2022-09-09T22:16:25.673Z,14.21
2022-09-09T22:18:57.985Z,14.21
2022-09-09T22:21:29.177Z,14.19
2022-09-09T22:23:59.796Z,14.20
2022-09-09T22:26:31.699Z,14.20
2022-09-09T22:29:01.103Z,14.20
2022-09-09T22:31:30.621Z,14.20
2022-09-09T22:34:00.895Z,14.19
2022-09-09T22:36:31.790Z,14.20
2022-09-09T22:39:01.748Z,14.20
2022-09-09T22:41:32.061Z,14.20
2022-09-09T22:44:00.908Z,14.20
2022-09-09T22:46:30.297Z,14.19
2022-09-09T22:49:03.208Z,14.19
2022-09-09T22:51:34.336Z,14.18
2022-09-09T22:54:03.194Z,14.18
2022-09-09T22:56:32.058Z,14.18
2022-09-09T22:59:01.554Z,14.18
2022-09-09T23:01:30.664Z,14.17
2022-09-09T23:04:02.600Z,14.17
2022-09-09T23:06:32.336Z,14.16
2022-09-09T23:09:03.214Z,14.15
2022-09-09T23:11:34.687Z,14.15
2022-09-09T23:14:06.564Z,14.15
2022-09-09T23:16:39.805Z,14.15
2022-09-09T23:19:15.162Z,14.14
2022-09-09T23:21:46.219Z,14.15
2022-09-09T23:24:17.631Z,14.14
2022-09-09T23:26:47.446Z,14.13
2022-09-09T23:29:16.894Z,14.13
2022-09-09T23:31:46.860Z,14.13
2022-09-09T23:34:17.150Z,14.12
2022-09-09T23:36:47.189Z,14.12
2022-09-09T23:39:16.016Z,14.10
2022-09-09T23:41:45.272Z,14.10
2022-09-09T23:44:14.523Z,14.10
2022-09-09T23:46:44.028Z,14.08
2022-09-09T23:49:12.922Z,14.07
2022-09-09T23:51:43.316Z,14.07
2022-09-09T23:54:12.249Z,14.07
2022-09-09T23:56:42.449Z,14.07
2022-09-09T23:59:11.918Z,14.07
